Time;durP1;ratioP1;P1;durP2;ratioP2;P2;SDS_P1;SDS_P2;PMS_P1;PMS_P2;Temp;Humidity;BMP_temperature;BMP_pressure;BME280_temperature;BME280_humidity;BME280_pressure;Samples;Min_cycle;Max_cycle;Signal;HPM_P1;HPM_P2
2021/04/11 00:01:29;;;;;;;14.35;7.88;;;;;;;;;;5112620;28;20030;-79
2021/04/11 00:03:55;;;;;;;11.60;7.28;;;;;;;;;;5112308;28;20054;-77
2021/04/11 00:06:21;;;;;;;12.60;7.43;;;;;;;;;;5112661;28;20027;-78
2021/04/11 00:08:48;;;;;;;13.32;7.90;;;;;;;;;;5112213;28;20023;-78
2021/04/11 00:11:14;;;;;;;13.70;7.97;;;;;;;;;;5112468;28;20035;-81
2021/04/11 00:13:40;;;;;;;12.55;7.15;;;;;;;;;;5112028;28;20016;-77
2021/04/11 00:16:06;;;;;;;14.20;8.35;;;;;;;;;;5112472;28;20378;-81
2021/04/11 00:18:33;;;;;;;16.00;8.98;;;;;;;;;;5112436;28;20023;-82
2021/04/11 00:21:02;;;;;;;24.55;16.35;;;;;;;;;;5112229;28;20027;-78
2021/04/11 00:23:28;;;;;;;25.42;15.07;;;;;;;;;;5112492;28;20466;-78
2021/04/11 00:25:54;;;;;;;14.07;8.43;;;;;;;;;;5112033;28;20031;-77
2021/04/11 00:28:20;;;;;;;12.20;7.13;;;;;;;;;;5112089;28;20046;-80
2021/04/11 00:30:46;;;;;;;8.20;4.95;;;;;;;;;;5113009;28;20486;-80
2021/04/11 00:33:25;;;;;;;6.00;4.32;;;;;;;;;;5115979;28;20069;-81
2021/04/11 00:35:58;;;;;;;7.88;5.68;;;;;;;;;;5115582;28;20059;-77
2021/04/11 00:38:25;;;;;;;13.60;6.60;;;;;;;;;;5115712;28;20385;-79
2021/04/11 00:40:51;;;;;;;14.70;8.32;;;;;;;;;;5115506;28;20023;-82
2021/04/11 00:43:17;;;;;;;14.32;8.05;;;;;;;;;;5115895;28;20103;-80
2021/04/11 00:45:43;;;;;;;14.52;8.05;;;;;;;;;;5115472;28;20438;-77
2021/04/11 00:48:11;;;;;;;15.57;9.60;;;;;;;;;;5115743;28;20020;-77
2021/04/11 00:50:37;;;;;;;6.32;4.38;;;;;;;;;;5115135;28;20443;-79
2021/04/11 00:53:04;;;;;;;6.93;3.67;;;;;;;;;;5114312;28;20073;-78
2021/04/11 00:55:30;;;;;;;8.55;4.05;;;;;;;;;;5115334;28;20106;-80
2021/04/11 00:57:57;;;;;;;13.10;7.70;;;;;;;;;;5115438;28;20042;-78
2021/04/11 01:00:26;;;;;;;13.23;7.55;;;;;;;;;;5115439;28;20019;-80
2021/04/11 01:02:53;;;;;;;16.98;8.70;;;;;;;;;;5115278;28;20027;-80
2021/04/11 01:05:41;;;;;;;10.98;5.95;;;;;;;;;;5114038;28;20085;-78
2021/04/11 01:08:11;;;;;;;8.02;5.15;;;;;;;;;;5115240;28;20121;-77
2021/04/11 01:10:44;;;;;;;38.75;20.75;;;;;;;;;;5115274;28;20467;-79
2021/04/11 01:13:10;;;;;;;17.73;10.48;;;;;;;;;;5115013;28;20125;-78
2021/04/11 01:15:36;;;;;;;15.32;9.60;;;;;;;;;;5115066;28;20085;-79
2021/04/11 01:18:03;;;;;;;15.20;9.60;;;;;;;;;;5115081;28;20397;-77
2021/04/11 01:20:31;;;;;;;42.47;24.00;;;;;;;;;;5114915;28;20018;-80
2021/04/11 01:23:10;;;;;;;13.68;8.10;;;;;;;;;;5115236;28;20085;-81
2021/04/11 01:25:37;;;;;;;9.45;5.85;;;;;;;;;;5114795;28;20028;-81
2021/04/11 01:28:09;;;;;;;14.13;8.68;;;;;;;;;;5114580;28;20027;-80
2021/04/11 01:30:36;;;;;;;12.73;8.40;;;;;;;;;;5114706;28;20040;-78
2021/04/11 01:33:04;;;;;;;9.82;7.82;;;;;;;;;;5114531;28;20028;-79
2021/04/11 01:35:30;;;;;;;13.60;9.20;;;;;;;;;;5114816;28;20031;-77
2021/04/11 01:37:58;;;;;;;14.70;8.30;;;;;;;;;;5114514;28;20035;-81
2021/04/11 01:40:33;;;;;;;15.00;7.18;;;;;;;;;;5096066;28;20405;-79
2021/04/11 01:43:00;;;;;;;11.80;6.85;;;;;;;;;;5096187;28;20490;-80
2021/04/11 01:45:28;;;;;;;9.40;5.45;;;;;;;;;;5114618;28;20031;-77
2021/04/11 01:47:54;;;;;;;10.52;5.78;;;;;;;;;;5114292;28;20031;-78
2021/04/11 01:50:21;;;;;;;11.52;7.05;;;;;;;;;;5114485;28;20031;-78
2021/04/11 01:52:47;;;;;;;9.40;5.30;;;;;;;;;;5114261;28;20024;-80
2021/04/11 01:55:14;;;;;;;10.95;5.60;;;;;;;;;;5114323;28;20102;-78
2021/04/11 01:57:41;;;;;;;8.68;5.45;;;;;;;;;;5114218;28;20032;-79
2021/04/11 02:00:07;;;;;;;9.98;6.60;;;;;;;;;;5114086;28;20028;-78
2021/04/11 02:02:34;;;;;;;10.60;7.53;;;;;;;;;;5114306;28;20478;-80
2021/04/11 02:05:00;;;;;;;12.60;8.02;;;;;;;;;;5114001;28;20037;-78
2021/04/11 02:07:26;;;;;;;12.20;6.97;;;;;;;;;;5114266;28;20474;-79
2021/04/11 02:09:52;;;;;;;9.82;5.90;;;;;;;;;;5114015;28;20077;-78
2021/04/11 02:12:18;;;;;;;9.20;5.28;;;;;;;;;;5113862;28;20104;-80
2021/04/11 02:14:45;;;;;;;10.82;6.65;;;;;;;;;;5113865;28;20028;-79
2021/04/11 02:17:12;;;;;;;12.90;7.20;;;;;;;;;;5113643;28;20020;-78
2021/04/11 02:19:39;;;;;;;13.02;7.15;;;;;;;;;;5113869;28;20428;-81
2021/04/11 02:22:12;;;;;;;6.53;5.10;;;;;;;;;;5113544;28;20062;-80
2021/04/11 02:24:40;;;;;;;5.88;4.07;;;;;;;;;;5113722;27;20030;-76
2021/04/11 02:27:07;;;;;;;5.95;4.25;;;;;;;;;;5113480;28;20024;-79
2021/04/11 02:29:33;;;;;;;6.65;4.28;;;;;;;;;;5113538;28;20039;-77
2021/04/11 02:31:59;;;;;;;7.70;4.97;;;;;;;;;;5113293;28;20054;-79
2021/04/11 02:34:27;;;;;;;6.88;4.80;;;;;;;;;;5113658;28;20118;-81
2021/04/11 02:37:01;;;;;;;9.82;5.70;;;;;;;;;;5113335;28;20031;-80
2021/04/11 02:39:29;;;;;;;9.25;4.07;;;;;;;;;;5113710;28;20032;-80
2021/04/11 02:41:56;;;;;;;7.75;4.60;;;;;;;;;;5113325;28;20493;-81
2021/04/11 02:44:22;;;;;;;12.82;6.18;;;;;;;;;;5113512;28;20032;-79
2021/04/11 02:46:49;;;;;;;8.35;5.30;;;;;;;;;;5113153;28;20477;-79
2021/04/11 02:49:21;;;;;;;10.77;5.53;;;;;;;;;;5113308;28;20047;-81
2021/04/11 02:51:48;;;;;;;8.55;5.35;;;;;;;;;;5112801;28;20035;-81
2021/04/11 02:54:15;;;;;;;9.73;5.75;;;;;;;;;;5112788;28;20067;-77
2021/04/11 02:56:43;;;;;;;17.83;11.35;;;;;;;;;;5113053;28;20113;-82
2021/04/11 02:59:10;;;;;;;17.45;11.20;;;;;;;;;;5113170;28;20462;-81
2021/04/11 03:01:39;;;;;;;12.93;7.22;;;;;;;;;;5113159;28;20543;-78
2021/04/11 03:04:05;;;;;;;11.18;7.35;;;;;;;;;;5113158;28;20060;-80
2021/04/11 03:06:34;;;;;;;12.90;7.30;;;;;;;;;;5113114;28;20055;-79
2021/04/11 03:09:04;;;;;;;10.23;6.32;;;;;;;;;;5112934;28;20110;-78
2021/04/11 03:11:36;;;;;;;10.70;6.15;;;;;;;;;;5112977;28;20054;-80
2021/04/11 03:14:05;;;;;;;14.85;9.40;;;;;;;;;;5112984;28;20059;-79
2021/04/11 03:16:35;;;;;;;14.93;8.20;;;;;;;;;;5112940;28;20031;-80
2021/04/11 03:19:02;;;;;;;14.95;8.43;;;;;;;;;;5112880;28;20023;-79
2021/04/11 03:21:29;;;;;;;14.75;7.97;;;;;;;;;;5112661;28;20055;-78
2021/04/11 03:23:55;;;;;;;11.50;6.68;;;;;;;;;;5112844;28;20031;-78
2021/04/11 03:26:42;;;;;;;9.05;5.85;;;;;;;;;;5112822;28;20024;-79
2021/04/11 03:29:14;;;;;;;10.75;6.18;;;;;;;;;;5105391;28;20035;-81
2021/04/11 03:31:42;;;;;;;8.55;5.38;;;;;;;;;;5112701;28;20031;-77
2021/04/11 03:34:10;;;;;;;8.30;5.28;;;;;;;;;;5112716;28;20031;-78
2021/04/11 03:36:37;;;;;;;13.20;7.75;;;;;;;;;;5112967;28;20073;-78
2021/04/11 03:39:04;;;;;;;9.93;7.50;;;;;;;;;;5112689;28;20023;-78
2021/04/11 03:41:31;;;;;;;10.07;6.78;;;;;;;;;;5112706;28;20035;-78
2021/04/11 03:43:58;;;;;;;10.77;6.10;;;;;;;;;;5112736;28;20106;-81
2021/04/11 03:46:30;;;;;;;13.10;7.85;;;;;;;;;;5112245;28;20055;-77
2021/04/11 03:49:05;;;;;;;9.00;6.03;;;;;;;;;;5112478;28;20081;-79
2021/04/11 03:51:32;;;;;;;9.15;6.40;;;;;;;;;;5112558;28;20038;-81
2021/04/11 03:54:05;;;;;;;13.80;7.63;;;;;;;;;;5112402;28;20080;-78
2021/04/11 03:56:36;;;;;;;21.25;9.65;;;;;;;;;;5112721;28;20036;-78
2021/04/11 03:59:04;;;;;;;14.38;9.82;;;;;;;;;;5112377;28;20027;-78
2021/04/11 04:01:35;;;;;;;16.33;11.55;;;;;;;;;;5112545;28;20024;-78
2021/04/11 04:04:03;;;;;;;13.63;8.68;;;;;;;;;;5113557;28;20359;-80
2021/04/11 04:06:30;;;;;;;16.30;8.50;;;;;;;;;;5116643;28;20023;-78
2021/04/11 04:08:57;;;;;;;13.60;7.95;;;;;;;;;;5116249;28;20054;-81
2021/04/11 04:11:39;;;;;;;9.55;6.47;;;;;;;;;;5116317;28;20056;-79
2021/04/11 04:14:24;;;;;;;12.32;6.47;;;;;;;;;;5116285;28;20583;-79
2021/04/11 04:17:04;;;;;;;10.32;5.32;;;;;;;;;;5116320;28;20046;-78
2021/04/11 04:19:39;;;;;;;10.82;6.82;;;;;;;;;;5116076;28;20028;-78
2021/04/11 04:22:06;;;;;;;9.98;6.05;;;;;;;;;;5115974;28;20047;-80
2021/04/11 04:24:36;;;;;;;6.95;5.35;;;;;;;;;;5115164;28;20054;-78
2021/04/11 04:27:10;;;;;;;6.97;4.30;;;;;;;;;;5115815;28;20569;-79
2021/04/11 04:29:39;;;;;;;7.40;4.82;;;;;;;;;;5114601;28;20417;-80
2021/04/11 04:32:24;;;;;;;7.68;4.55;;;;;;;;;;5115541;28;20390;-79
2021/04/11 04:34:50;;;;;;;11.55;6.68;;;;;;;;;;5115715;28;20032;-81
2021/04/11 04:37:34;;;;;;;12.40;6.97;;;;;;;;;;5116087;28;20450;-77
2021/04/11 04:40:04;;;;;;;10.80;8.55;;;;;;;;;;5114578;28;20092;-79
2021/04/11 04:42:36;;;;;;;10.75;6.95;;;;;;;;;;5115615;28;20085;-81
2021/04/11 04:45:05;;;;;;;13.20;8.55;;;;;;;;;;5115866;28;20110;-78
2021/04/11 04:47:34;;;;;;;12.55;8.57;;;;;;;;;;5115927;28;20424;-80
2021/04/11 04:50:05;;;;;;;21.63;13.43;;;;;;;;;;5115694;28;20072;-81
2021/04/11 04:52:32;;;;;;;23.73;14.48;;;;;;;;;;5115502;28;20031;-81
2021/04/11 04:55:16;;;;;;;25.08;16.58;;;;;;;;;;5115548;28;20027;-79
2021/04/11 04:57:49;;;;;;;28.05;17.17;;;;;;;;;;5115668;28;20024;-76
2021/04/11 05:00:33;;;;;;;31.08;18.98;;;;;;;;;;5114227;28;20027;-81
2021/04/11 05:03:04;;;;;;;37.80;23.60;;;;;;;;;;5115413;28;20024;-80
2021/04/11 05:05:31;;;;;;;26.23;18.40;;;;;;;;;;5115494;27;20027;-79
2021/04/11 05:08:03;;;;;;;30.70;19.73;;;;;;;;;;5115388;28;20102;-77
2021/04/11 05:10:34;;;;;;;24.48;15.60;;;;;;;;;;5115351;28;20024;-77
2021/04/11 05:13:04;;;;;;;12.23;9.55;;;;;;;;;;5115109;28;20036;-76
2021/04/11 05:15:37;;;;;;;21.85;13.30;;;;;;;;;;5114499;28;20034;-77
2021/04/11 05:18:07;;;;;;;66.05;32.83;;;;;;;;;;5115029;28;20032;-78
2021/04/11 05:20:34;;;;;;;42.92;23.05;;;;;;;;;;5115010;28;20358;-78
2021/04/11 05:23:12;;;;;;;30.17;19.80;;;;;;;;;;5114936;28;20094;-78
2021/04/11 05:25:44;;;;;;;23.80;15.85;;;;;;;;;;5114999;28;20032;-78
2021/04/11 05:28:16;;;;;;;35.92;22.98;;;;;;;;;;5114420;28;20047;-78
2021/04/11 05:30:45;;;;;;;26.15;15.70;;;;;;;;;;5114781;28;20107;-78
2021/04/11 05:33:14;;;;;;;25.15;16.52;;;;;;;;;;5114622;27;20031;-77
2021/04/11 05:35:40;;;;;;;21.13;14.07;;;;;;;;;;5114902;28;20504;-76
2021/04/11 05:38:28;;;;;;;20.25;13.60;;;;;;;;;;5114604;28;20027;-80
2021/04/11 05:40:56;;;;;;;11.82;10.10;;;;;;;;;;5114512;28;20023;-81
2021/04/11 05:43:25;;;;;;;12.95;10.02;;;;;;;;;;5114950;28;20433;-78
2021/04/11 05:46:10;;;;;;;22.88;15.35;;;;;;;;;;5114456;28;20059;-78
2021/04/11 05:48:50;;;;;;;30.50;20.77;;;;;;;;;;5114788;28;20110;-77
2021/04/11 05:51:19;;;;;;;28.45;17.98;;;;;;;;;;5113097;28;20424;-79
2021/04/11 05:54:02;;;;;;;24.20;16.67;;;;;;;;;;5114903;28;20051;-78
2021/04/11 05:56:46;;;;;;;22.65;15.57;;;;;;;;;;5114615;28;20467;-78
2021/04/11 05:59:14;;;;;;;19.88;13.52;;;;;;;;;;5114643;28;20019;-79
2021/04/11 06:01:46;;;;;;;22.58;14.13;;;;;;;;;;5114421;28;20134;-81
2021/04/11 06:04:17;;;;;;;26.63;16.70;;;;;;;;;;5114685;28;20032;-79
2021/04/11 06:06:54;;;;;;;14.35;9.32;;;;;;;;;;5114253;28;20102;-80
2021/04/11 06:09:20;;;;;;;12.23;7.82;;;;;;;;;;5114223;28;20378;-80
2021/04/11 06:11:49;;;;;;;18.95;11.68;;;;;;;;;;5113852;28;20032;-78
2021/04/11 06:14:18;;;;;;;11.57;7.35;;;;;;;;;;5114429;28;20116;-77
2021/04/11 06:16:44;;;;;;;21.05;12.68;;;;;;;;;;5114127;28;20042;-77
2021/04/11 06:19:11;;;;;;;30.88;16.63;;;;;;;;;;5114090;28;20020;-78
2021/04/11 06:21:37;;;;;;;17.50;11.85;;;;;;;;;;5114175;28;20485;-78
2021/04/11 06:24:22;;;;;;;12.45;8.38;;;;;;;;;;5114276;28;20368;-77
2021/04/11 06:26:55;;;;;;;11.98;9.27;;;;;;;;;;5113527;28;20030;-78
2021/04/11 06:29:23;;;;;;;22.55;13.32;;;;;;;;;;5113108;28;20046;-80
2021/04/11 06:31:53;;;;;;;15.15;10.90;;;;;;;;;;5112736;28;20046;-78
2021/04/11 06:34:23;;;;;;;9.60;6.13;;;;;;;;;;5113651;28;20066;-78
2021/04/11 06:36:53;;;;;;;7.78;5.15;;;;;;;;;;5114030;28;20077;-79
2021/04/11 06:39:37;;;;;;;9.77;6.60;;;;;;;;;;5113577;28;20031;-80
2021/04/11 06:42:33;;;;;;;9.05;5.82;;;;;;;;;;5114199;28;20096;-80
2021/04/11 06:45:01;;;;;;;8.18;4.78;;;;;;;;;;5105170;28;20039;-80
2021/04/11 06:47:46;;;;;;;9.23;4.97;;;;;;;;;;5112672;28;20089;-78
2021/04/11 06:50:12;;;;;;;;;;;;;;;;;;5113892;28;20096;-79
2021/04/11 06:52:48;;;;;;;7.32;5.32;;;;;;;;;;5113130;28;20359;-81
2021/04/11 06:55:14;;;;;;;9.90;6.13;;;;;;;;;;5113030;28;20031;-79
2021/04/11 06:58:06;;;;;;;9.25;5.32;;;;;;;;;;5113318;28;20020;-78
2021/04/11 07:00:51;;;;;;;8.80;5.35;;;;;;;;;;5096998;28;20487;-78
2021/04/11 07:03:36;;;;;;;6.88;4.45;;;;;;;;;;5113152;28;20062;-77
2021/04/11 07:06:21;;;;;;;8.60;5.25;;;;;;;;;;5113262;28;20024;-78
2021/04/11 07:09:07;;;;;;;8.57;5.10;;;;;;;;;;5113036;28;20023;-78
2021/04/11 07:11:42;;;;;;;6.00;3.80;;;;;;;;;;5106054;28;20100;-78
2021/04/11 07:14:18;;;;;;;9.02;4.50;;;;;;;;;;5111645;28;20024;-80
2021/04/11 07:16:54;;;;;;;6.13;4.00;;;;;;;;;;5113009;28;20034;-79
2021/04/11 07:19:29;;;;;;;6.07;3.83;;;;;;;;;;5113020;28;20023;-79
2021/04/11 07:22:13;;;;;;;5.45;4.40;;;;;;;;;;5113088;28;20504;-80
2021/04/11 07:24:47;;;;;;;5.70;3.38;;;;;;;;;;5113109;28;20024;-78
2021/04/11 07:27:32;;;;;;;5.63;3.47;;;;;;;;;;5112645;28;20023;-80
2021/04/11 07:29:58;;;;;;;;;;;;;;;;;;5112793;28;20047;-78
2021/04/11 07:32:33;;;;;;;4.28;2.70;;;;;;;;;;5112870;28;19939;-80
2021/04/11 07:35:05;;;;;;;5.88;2.90;;;;;;;;;;5112703;28;20020;-79
2021/04/11 07:37:50;;;;;;;4.32;2.30;;;;;;;;;;5112920;28;20042;-80
2021/04/11 07:40:16;;;;;;;;;;;;;;;;;;5116748;28;20028;-79
2021/04/11 07:43:00;;;;;;;3.83;2.50;;;;;;;;;;5116934;28;19908;-79
2021/04/11 07:45:42;;;;;;;4.05;2.72;;;;;;;;;;5116700;28;20023;-80
2021/04/11 07:48:34;;;;;;;6.03;2.72;;;;;;;;;;5116593;28;20024;-80
2021/04/11 07:51:19;;;;;;;5.32;2.63;;;;;;;;;;5100537;28;20372;-78
2021/04/11 07:54:02;;;;;;;5.00;2.60;;;;;;;;;;5116718;28;20078;-80
2021/04/11 07:56:51;;;;;;;2.65;2.40;;;;;;;;;;5116590;28;20080;-80
2021/04/11 07:59:23;;;;;;;3.47;2.38;;;;;;;;;;5141984;27;20032;-79
2021/04/11 08:02:08;;;;;;;4.00;2.45;;;;;;;;;;5116771;28;20555;-81
2021/04/11 08:04:53;;;;;;;6.05;3.78;;;;;;;;;;5116817;28;20489;-80
2021/04/11 08:07:29;;;;;;;3.47;2.55;;;;;;;;;;5115661;28;20398;-81
2021/04/11 08:10:01;;;;;;;3.55;2.40;;;;;;;;;;5116902;28;20028;-80
2021/04/11 08:12:27;;;;;;;4.00;2.22;;;;;;;;;;5116278;28;20071;-80
2021/04/11 08:15:05;;;;;;;3.85;2.20;;;;;;;;;;5116462;28;20035;-80
2021/04/11 08:17:31;;;;;;;4.53;2.60;;;;;;;;;;5116479;28;20165;-80
2021/04/11 08:20:00;;;;;;;5.93;3.83;;;;;;;;;;5116418;28;20027;-80
2021/04/11 08:22:56;;;;;;;5.53;2.75;;;;;;;;;;5116146;28;20023;-82
2021/04/11 08:25:40;;;;;;;4.35;2.22;;;;;;;;;;5107077;28;20490;-79
2021/04/11 08:28:25;;;;;;;5.55;2.83;;;;;;;;;;5116252;28;20028;-80
2021/04/11 08:31:10;;;;;;;3.17;2.47;;;;;;;;;;5116274;28;20035;-78
2021/04/11 08:33:54;;;;;;;4.25;2.38;;;;;;;;;;5116466;28;20119;-79
2021/04/11 08:36:20;;;;;;;4.25;2.33;;;;;;;;;;5114947;28;20031;-79
2021/04/11 08:38:49;;;;;;;5.68;2.28;;;;;;;;;;5116033;28;20035;-78
2021/04/11 08:41:34;;;;;;;4.82;3.00;;;;;;;;;;5116288;28;20114;-79
2021/04/11 08:44:00;;;;;;;;;;;;;;;;;;5116468;28;20115;-80
2021/04/11 08:46:36;;;;;;;6.45;2.40;;;;;;;;;;5115873;28;19958;-79
2021/04/11 08:49:05;;;;;;;3.67;2.33;;;;;;;;;;5115919;28;20118;-81
2021/04/11 08:51:50;;;;;;;3.55;2.95;;;;;;;;;;5113933;28;20044;-78
2021/04/11 08:54:16;;;;;;;;;;;;;;;;;;5114391;28;20027;-81
2021/04/11 08:57:01;;;;;;;4.88;1.95;;;;;;;;;;5115361;28;19998;-81
2021/04/11 08:59:37;;;;;;;3.97;2.22;;;;;;;;;;5115688;28;20024;-79
2021/04/11 09:02:06;;;;;;;4.43;2.17;;;;;;;;;;5115460;28;20023;-79
2021/04/11 09:04:39;;;;;;;4.40;2.22;;;;;;;;;;5115502;28;20382;-80
2021/04/11 09:07:24;;;;;;;4.78;2.83;;;;;;;;;;5115560;28;20027;-79
2021/04/11 09:09:50;;;;;;;;;;;;;;;;;;5115774;28;20027;-80
2021/04/11 09:12:39;;;;;;;5.30;2.00;;;;;;;;;;5115074;28;19912;-77
2021/04/11 09:15:24;;;;;;;3.38;2.05;;;;;;;;;;5110067;28;20111;-78
2021/04/11 09:18:08;;;;;;;6.20;2.33;;;;;;;;;;5115483;28;20026;-80
2021/04/11 09:20:35;;;;;;;3.88;2.33;;;;;;;;;;5115075;28;20035;-79
2021/04/11 09:23:19;;;;;;;6.57;2.53;;;;;;;;;;5115147;28;20024;-78
2021/04/11 09:25:52;;;;;;;3.53;2.65;;;;;;;;;;5115160;28;20034;-80
2021/04/11 09:28:37;;;;;;;5.80;2.40;;;;;;;;;;5114831;28;20044;-79
2021/04/11 09:31:12;;;;;;;3.20;1.90;;;;;;;;;;5114756;28;20024;-81
2021/04/11 09:33:56;;;;;;;4.22;1.98;;;;;;;;;;5114950;28;20031;-79
2021/04/11 09:36:22;;;;;;;;;;;;;;;;;;5115087;28;20857;-80
2021/04/11 09:39:07;;;;;;;5.43;2.20;;;;;;;;;;5114459;28;19904;-79
2021/04/11 09:41:33;;;;;;;;;;;;;;;;;;5113334;28;20114;-78
2021/04/11 09:44:18;;;;;;;2.05;1.42;;;;;;;;;;5114861;28;19912;-79
2021/04/11 09:46:44;;;;;;;;;;;;;;;;;;5115127;28;20024;-79
2021/04/11 09:49:16;;;;;;;3.70;2.40;;;;;;;;;;5114969;28;19956;-79
2021/04/11 09:52:01;;;;;;;2.40;1.55;;;;;;;;;;5114313;28;20043;-79
2021/04/11 09:54:27;;;;;;;;;;;;;;;;;;5115037;28;20474;-78
2021/04/11 09:56:53;;;;;;;3.45;2.40;;;;;;;;;;5114552;28;19926;-78
2021/04/11 09:59:38;;;;;;;3.97;2.08;;;;;;;;;;5114282;28;20025;-78
2021/04/11 10:02:04;;;;;;;3.40;2.25;;;;;;;;;;5114011;28;20106;-78
2021/04/11 10:04:49;;;;;;;2.92;2.15;;;;;;;;;;5114332;28;20397;-78
2021/04/11 10:07:22;;;;;;;6.80;3.33;;;;;;;;;;5114357;28;20096;-79
2021/04/11 10:09:53;;;;;;;5.57;2.40;;;;;;;;;;5114183;28;20034;-79
2021/04/11 10:12:38;;;;;;;4.82;1.90;;;;;;;;;;5114172;28;20027;-78
2021/04/11 10:15:04;;;;;;;3.30;2.10;;;;;;;;;;5114292;28;20023;-80
2021/04/11 10:17:33;;;;;;;4.85;2.42;;;;;;;;;;5112674;28;20398;-82
2021/04/11 10:20:12;;;;;;;4.28;2.25;;;;;;;;;;5114058;28;20115;-79
2021/04/11 10:22:50;;;;;;;4.18;2.80;;;;;;;;;;5114202;28;20023;-81
2021/04/11 10:25:25;;;;;;;6.07;4.10;;;;;;;;;;5112924;28;20085;-80
2021/04/11 10:28:07;;;;;;;7.10;3.95;;;;;;;;;;5113868;28;20031;-79
2021/04/11 10:30:35;;;;;;;5.65;3.13;;;;;;;;;;5113704;28;20364;-80
2021/04/11 10:33:21;;;;;;;8.20;3.88;;;;;;;;;;5114356;28;20055;-79
2021/04/11 10:35:47;;;;;;;15.77;4.57;;;;;;;;;;5113649;28;20054;-79
2021/04/11 10:38:19;;;;;;;5.80;2.63;;;;;;;;;;5113848;28;20380;-80
2021/04/11 10:41:04;;;;;;;4.80;2.22;;;;;;;;;;5113609;28;20031;-80
2021/04/11 10:43:30;;;;;;;;;;;;;;;;;;5113999;28;20023;-80
2021/04/11 10:46:03;;;;;;;2.75;2.22;;;;;;;;;;5112444;28;19957;-80
2021/04/11 10:48:38;;;;;;;6.32;2.90;;;;;;;;;;5112396;28;20027;-79
2021/04/11 10:51:04;;;;;;;4.78;2.88;;;;;;;;;;5112181;28;20488;-78
2021/04/11 10:53:49;;;;;;;6.93;3.38;;;;;;;;;;5113323;28;20023;-79
2021/04/11 10:56:34;;;;;;;5.28;3.42;;;;;;;;;;5113532;28;20031;-78
2021/04/11 10:59:09;;;;;;;4.70;2.00;;;;;;;;;;5113364;28;20027;-78
2021/04/11 11:01:50;;;;;;;4.18;2.35;;;;;;;;;;5111803;28;20015;-79
2021/04/11 11:04:16;;;;;;;4.82;2.10;;;;;;;;;;5112888;28;20024;-80
2021/04/11 11:07:11;;;;;;;8.02;2.17;;;;;;;;;;5113606;28;20024;-79
2021/04/11 11:09:37;;;;;;;;;;;;;;;;;;5104627;28;20111;-80
2021/04/11 11:12:22;;;;;;;4.20;1.92;;;;;;;;;;5113040;28;20446;-79
2021/04/11 11:15:07;;;;;;;12.57;2.22;;;;;;;;;;5112582;28;20085;-79
2021/04/11 11:17:33;;;;;;;4.35;2.33;;;;;;;;;;5113052;28;20069;-80
2021/04/11 11:20:08;;;;;;;3.70;1.65;;;;;;;;;;5113347;28;20355;-80
2021/04/11 11:22:44;;;;;;;3.92;1.88;;;;;;;;;;5113044;28;20076;-79
2021/04/11 11:25:19;;;;;;;4.85;1.88;;;;;;;;;;5112992;28;20019;-78
2021/04/11 11:28:09;;;;;;;4.68;2.70;;;;;;;;;;5113073;28;20084;-81
2021/04/11 11:30:43;;;;;;;3.03;1.70;;;;;;;;;;5107359;28;20055;-79
2021/04/11 11:33:28;;;;;;;6.80;2.60;;;;;;;;;;5113110;28;20082;-82
2021/04/11 11:36:23;;;;;;;3.75;1.67;;;;;;;;;;5113377;28;20024;-79
2021/04/11 11:39:08;;;;;;;2.50;1.58;;;;;;;;;;5104425;28;20073;-79
2021/04/11 11:41:52;;;;;;;4.10;2.00;;;;;;;;;;5113132;28;20031;-81
2021/04/11 11:44:30;;;;;;;2.50;1.55;;;;;;;;;;5113437;28;20031;-80
2021/04/11 11:47:15;;;;;;;4.45;1.38;;;;;;;;;;5113515;28;20459;-80
2021/04/11 11:49:49;;;;;;;6.85;2.00;;;;;;;;;;5113196;28;20038;-80
2021/04/11 11:52:21;;;;;;;6.53;2.78;;;;;;;;;;5112599;28;20063;-79
2021/04/11 11:54:54;;;;;;;2.72;1.45;;;;;;;;;;5112696;28;20027;-79
2021/04/11 11:57:36;;;;;;;2.63;1.65;;;;;;;;;;5112744;28;20110;-78
2021/04/11 12:00:06;;;;;;;4.43;2.20;;;;;;;;;;5112751;28;20019;-78
2021/04/11 12:02:51;;;;;;;8.70;4.18;;;;;;;;;;5112617;28;20118;-78
2021/04/11 12:05:22;;;;;;;3.83;2.30;;;;;;;;;;5112693;28;20020;-78
2021/04/11 12:08:07;;;;;;;7.45;3.70;;;;;;;;;;5112640;28;20066;-78
2021/04/11 12:10:39;;;;;;;3.78;1.95;;;;;;;;;;5112458;28;20482;-78
2021/04/11 12:13:09;;;;;;;3.42;1.50;;;;;;;;;;5112326;28;20027;-78
2021/04/11 12:15:43;;;;;;;6.18;1.70;;;;;;;;;;5112514;28;20486;-78
2021/04/11 12:18:14;;;;;;;4.93;1.75;;;;;;;;;;5112646;28;20016;-80
2021/04/11 12:20:49;;;;;;;3.92;2.33;;;;;;;;;;5112938;28;20023;-78
2021/04/11 12:23:18;;;;;;;3.40;1.70;;;;;;;;;;5112689;28;20051;-78
2021/04/11 12:25:45;;;;;;;3.65;1.90;;;;;;;;;;5114663;28;20479;-77
2021/04/11 12:28:27;;;;;;;5.32;2.75;;;;;;;;;;5116345;28;20077;-79
2021/04/11 12:30:55;;;;;;;5.93;2.40;;;;;;;;;;5116311;28;20465;-78
2021/04/11 12:33:39;;;;;;;5.22;2.80;;;;;;;;;;5116122;28;20091;-77
2021/04/11 12:36:05;;;;;;;;;;;;;;;;;;5116533;28;20076;-77
2021/04/11 12:38:43;;;;;;;2.45;1.15;;;;;;;;;;5115729;28;20344;-78
2021/04/11 12:41:28;;;;;;;3.83;1.33;;;;;;;;;;5115863;28;20416;-77
2021/04/11 12:43:54;;;;;;;;;;;;;;;;;;5115985;28;20042;-78
2021/04/11 12:46:41;;;;;;;3.05;1.58;;;;;;;;;;5116068;28;19904;-78
2021/04/11 12:49:10;;;;;;;3.10;1.65;;;;;;;;;;5115784;28;20474;-78
2021/04/11 12:51:39;;;;;;;2.80;1.55;;;;;;;;;;5115806;28;20043;-78
2021/04/11 12:54:12;;;;;;;5.65;2.05;;;;;;;;;;5114714;28;20355;-77
2021/04/11 12:56:41;;;;;;;3.63;1.60;;;;;;;;;;5115593;28;20050;-83
2021/04/11 12:59:18;;;;;;;2.65;1.48;;;;;;;;;;5115868;28;20058;-80
2021/04/11 13:01:46;;;;;;;2.15;1.40;;;;;;;;;;5114538;28;20028;-83
2021/04/11 13:04:16;;;;;;;4.07;1.55;;;;;;;;;;5115450;28;20028;-79
2021/04/11 13:06:51;;;;;;;1.80;1.30;;;;;;;;;;5115388;28;20034;-77
2021/04/11 13:09:36;;;;;;;2.63;1.58;;;;;;;;;;5115168;28;20027;-79
2021/04/11 13:12:02;;;;;;;;;;;;;;;;;;5115636;28;20032;-79
2021/04/11 13:14:28;;;;;;;4.65;1.15;;;;;;;;;;5115359;28;19998;-76
2021/04/11 13:17:02;;;;;;;4.28;1.55;;;;;;;;;;5113956;28;20367;-80
2021/04/11 13:19:31;;;;;;;6.47;1.67;;;;;;;;;;5115521;28;20085;-79
2021/04/11 13:22:08;;;;;;;3.80;2.53;;;;;;;;;;5114949;28;20051;-79
2021/04/11 13:24:53;;;;;;;4.43;3.05;;;;;;;;;;5115208;28;20027;-77
2021/04/11 13:27:28;;;;;;;4.13;2.03;;;;;;;;;;5115652;28;20026;-80
2021/04/11 13:30:02;;;;;;;2.85;1.20;;;;;;;;;;5115320;28;20052;-79
2021/04/11 13:32:47;;;;;;;3.53;1.73;;;;;;;;;;5115214;28;20028;-78
2021/04/11 13:35:22;;;;;;;2.60;1.38;;;;;;;;;;5114611;28;20031;-82
2021/04/11 13:37:57;;;;;;;4.85;2.63;;;;;;;;;;5113950;28;20023;-78
2021/04/11 13:40:25;;;;;;;4.07;2.42;;;;;;;;;;5114711;28;20161;-79
2021/04/11 13:43:10;;;;;;;10.43;6.93;;;;;;;;;;5114575;28;20020;-82
2021/04/11 13:45:47;;;;;;;2.60;1.55;;;;;;;;;;5114515;28;20034;-80
2021/04/11 13:48:24;;;;;;;2.08;1.20;;;;;;;;;;5114703;28;20031;-76
2021/04/11 13:51:08;;;;;;;3.80;1.58;;;;;;;;;;5114512;28;20023;-76
2021/04/11 13:53:40;;;;;;;2.40;1.17;;;;;;;;;;5114636;28;20027;-79
2021/04/11 13:56:25;;;;;;;2.85;1.00;;;;;;;;;;5114397;28;20027;-78
2021/04/11 13:58:52;;;;;;;2.08;0.90;;;;;;;;;;5114072;28;20069;-78
2021/04/11 14:01:21;;;;;;;3.72;1.40;;;;;;;;;;5114484;28;20066;-77
2021/04/11 14:03:50;;;;;;;2.50;1.30;;;;;;;;;;5113899;28;20475;-77
2021/04/11 14:06:33;;;;;;;2.40;1.15;;;;;;;;;;5114289;28;20094;-79
2021/04/11 14:09:19;;;;;;;3.50;1.05;;;;;;;;;;5114155;28;20032;-78
2021/04/11 14:11:50;;;;;;;5.60;1.35;;;;;;;;;;5106689;28;20514;-79
2021/04/11 14:14:22;;;;;;;2.58;1.65;;;;;;;;;;5113946;28;20028;-80
2021/04/11 14:17:06;;;;;;;2.00;1.15;;;;;;;;;;5114124;28;20065;-76
2021/04/11 14:19:32;;;;;;;7.65;6.95;;;;;;;;;;5114090;28;20367;-79
2021/04/11 14:22:17;;;;;;;3.60;1.63;;;;;;;;;;5113597;28;20032;-77
2021/04/11 14:25:01;;;;;;;3.10;1.30;;;;;;;;;;5113487;28;20145;-79
2021/04/11 14:27:30;;;;;;;2.10;1.48;;;;;;;;;;5113510;28;20386;-78
2021/04/11 14:29:56;;;;;;;4.05;2.20;;;;;;;;;;5113552;28;20040;-79
2021/04/11 14:32:42;;;;;;;3.15;1.25;;;;;;;;;;5113605;28;20039;-80
2021/04/11 14:35:08;;;;;;;2.60;1.23;;;;;;;;;;5113787;28;20027;-78
2021/04/11 14:37:43;;;;;;;2.78;1.20;;;;;;;;;;5113841;28;20485;-77
2021/04/11 14:40:09;;;;;;;2.42;1.80;;;;;;;;;;5113597;28;20057;-78
2021/04/11 14:42:38;;;;;;;2.40;1.30;;;;;;;;;;5113691;28;20134;-79
2021/04/11 14:45:05;;;;;;;3.47;1.17;;;;;;;;;;5113367;28;20127;-78
2021/04/11 14:47:31;;;;;;;4.35;1.50;;;;;;;;;;5113620;28;20032;-78
2021/04/11 14:50:15;;;;;;;6.10;1.90;;;;;;;;;;5112862;28;20027;-79
2021/04/11 14:52:53;;;;;;;4.50;1.45;;;;;;;;;;5113742;28;20012;-79
2021/04/11 14:55:27;;;;;;;3.15;1.88;;;;;;;;;;5113643;28;20028;-79
2021/04/11 14:57:56;;;;;;;2.50;1.47;;;;;;;;;;5113499;28;20024;-79
2021/04/11 15:00:22;;;;;;;2.45;1.50;;;;;;;;;;5113583;28;20039;-79
2021/04/11 15:03:02;;;;;;;2.33;1.42;;;;;;;;;;5113127;28;20039;-77
2021/04/11 15:05:34;;;;;;;4.57;2.08;;;;;;;;;;5111862;28;20031;-78
2021/04/11 15:08:13;;;;;;;6.63;2.33;;;;;;;;;;5113141;28;20023;-78
2021/04/11 15:10:58;;;;;;;4.72;2.50;;;;;;;;;;5113372;28;20488;-78
2021/04/11 15:13:42;;;;;;;2.30;1.15;;;;;;;;;;5113051;28;20475;-78
2021/04/11 15:16:23;;;;;;;3.50;1.90;;;;;;;;;;5112914;28;20024;-79
2021/04/11 15:18:53;;;;;;;2.50;1.40;;;;;;;;;;5113049;28;20343;-80